createdAt,value
2019-02-12T12:40:51.006Z,7.90
2019-02-12T12:43:27.160Z,8.10
2019-02-12T12:45:57.489Z,8.20
2019-02-12T12:48:32.146Z,8.20
2019-02-12T12:51:02.448Z,8.40
2019-02-12T12:53:32.562Z,8.10
2019-02-12T12:56:39.458Z,7.80
2019-02-12T12:59:09.681Z,7.80
2019-02-12T13:01:40.099Z,8.10
2019-02-12T13:04:10.720Z,8.00
2019-02-12T13:06:42.019Z,8.10
2019-02-12T13:09:12.336Z,8.50
2019-02-12T13:11:42.460Z,8.60
2019-02-12T13:14:12.928Z,9.20
2019-02-12T13:16:45.194Z,9.30
2019-02-12T13:19:17.831Z,9.40
2019-02-12T13:21:48.193Z,9.40
2019-02-12T13:24:18.800Z,9.80
2019-02-12T13:26:48.983Z,9.60
2019-02-12T13:29:25.809Z,9.20
2019-02-12T13:31:55.960Z,8.80
2019-02-12T13:34:26.109Z,8.40
2019-02-12T13:36:58.257Z,8.40
2019-02-12T13:39:28.564Z,8.00
2019-02-12T13:42:01.379Z,8.20
2019-02-12T13:44:34.208Z,8.20
2019-02-12T13:47:07.685Z,8.20
2019-02-12T13:49:41.588Z,8.10
2019-02-12T13:52:12.150Z,8.00
2019-02-12T13:54:42.825Z,8.00
2019-02-12T13:57:39.109Z,8.30
2019-02-12T14:00:14.405Z,8.20
2019-02-12T14:02:44.648Z,8.00
2019-02-12T14:05:16.751Z,7.90
2019-02-12T14:07:47.027Z,8.00
2019-02-12T14:10:18.539Z,7.80
2019-02-12T14:12:55.805Z,7.70
2019-02-12T14:15:26.193Z,7.70
2019-02-12T14:17:56.401Z,7.60
2019-02-12T14:20:26.880Z,7.60
2019-02-12T14:23:01.052Z,7.70
2019-02-12T14:25:34.061Z,7.70
2019-02-12T14:28:04.605Z,7.60
2019-02-12T14:30:40.569Z,7.70
2019-02-12T14:33:11.009Z,7.70
2019-02-12T14:35:45.168Z,7.70
2019-02-12T14:38:17.927Z,7.60
2019-02-12T14:40:48.086Z,7.60
2019-02-12T14:43:21.261Z,7.60
2019-02-12T14:45:51.564Z,7.60
2019-02-12T14:48:22.038Z,7.60
2019-02-12T14:50:55.725Z,7.50
2019-02-12T14:53:25.861Z,7.60
2019-02-12T14:55:55.958Z,7.60
2019-02-12T14:58:26.104Z,7.60
2019-02-12T15:00:59.395Z,7.60
2019-02-12T15:03:34.978Z,7.60
2019-02-12T15:06:05.252Z,7.60
2019-02-12T15:08:37.365Z,7.60
2019-02-12T15:11:07.464Z,7.60
2019-02-12T15:13:37.612Z,7.60
2019-02-12T15:16:13.030Z,7.80
2019-02-12T15:18:43.474Z,7.80
2019-02-12T15:21:13.690Z,7.70
2019-02-12T15:24:07.865Z,7.70
2019-02-12T15:26:39.059Z,7.60
2019-02-12T15:29:13.549Z,7.70
2019-02-12T15:31:43.770Z,7.70
2019-02-12T15:34:18.792Z,7.70
2019-02-12T15:36:49.103Z,7.70
2019-02-12T15:39:22.269Z,7.60
2019-02-12T15:41:52.585Z,7.50
2019-02-12T15:44:22.781Z,7.50
2019-02-12T15:46:58.078Z,7.50
2019-02-12T15:49:28.271Z,7.40
2019-02-12T15:51:58.447Z,7.30
2019-02-12T15:54:31.630Z,7.30
2019-02-12T15:57:03.378Z,7.30
2019-02-12T15:59:36.166Z,7.30
2019-02-12T16:02:13.758Z,7.20
2019-02-12T16:04:44.152Z,7.20
2019-02-12T16:07:14.320Z,7.20
2019-02-12T16:09:48.076Z,7.10
2019-02-12T16:12:22.070Z,7.10
2019-02-12T16:14:53.062Z,7.00
2019-02-12T16:17:27.105Z,7.10
2019-02-12T16:19:58.903Z,7.10
2019-02-12T16:22:31.218Z,7.00
2019-02-12T16:25:02.271Z,6.90
2019-02-12T16:27:37.568Z,7.00
2019-02-12T16:30:10.885Z,6.90
2019-02-12T16:32:41.219Z,6.90
2019-02-12T16:35:12.289Z,6.90
2019-02-12T16:37:42.996Z,6.80
2019-02-12T16:40:13.897Z,6.80
2019-02-12T16:42:44.093Z,6.80
2019-02-12T16:45:18.478Z,6.80
2019-02-12T16:47:48.562Z,6.80
2019-02-12T16:50:21.868Z,6.70
2019-02-12T16:52:52.529Z,6.70
2019-02-12T16:55:22.771Z,6.60
2019-02-12T16:57:53.446Z,6.60
2019-02-12T17:00:31.481Z,6.50
2019-02-12T17:03:02.247Z,6.50
2019-02-12T17:05:32.524Z,6.40
2019-02-12T17:08:07.720Z,6.40
2019-02-12T17:10:41.209Z,6.30
2019-02-12T17:13:11.581Z,6.30
2019-02-12T17:15:41.804Z,6.30
2019-02-12T17:18:12.190Z,6.30
2019-02-12T17:20:45.110Z,6.20
2019-02-12T17:23:19.131Z,6.20
2019-02-12T17:25:49.388Z,6.10
2019-02-12T17:28:20.957Z,6.20
2019-02-12T17:30:51.147Z,6.10
2019-02-12T17:33:24.345Z,6.00
2019-02-12T17:35:54.564Z,6.00
2019-02-12T17:38:27.095Z,6.00
2019-02-12T17:40:57.389Z,5.90
2019-02-12T17:43:30.014Z,5.90
2019-02-12T17:46:03.525Z,5.90
2019-02-12T17:48:33.792Z,5.90
2019-02-12T17:51:11.744Z,5.90
2019-02-12T17:53:41.915Z,5.90
2019-02-12T17:56:12.135Z,5.80
2019-02-12T17:58:43.114Z,5.80
2019-02-12T18:01:18.432Z,5.80
2019-02-12T18:03:49.121Z,5.80
2019-02-12T18:06:24.333Z,5.80
2019-02-12T18:08:57.185Z,5.80
2019-02-12T18:11:28.812Z,5.80
2019-02-12T18:13:59.311Z,5.80
2019-02-12T18:16:29.712Z,5.70
2019-02-12T18:18:59.887Z,5.70
2019-02-12T18:21:34.405Z,5.70
2019-02-12T18:24:04.766Z,5.70
2019-02-12T18:26:37.343Z,5.70
2019-02-12T18:29:07.774Z,5.70
2019-02-12T18:31:39.972Z,5.70
2019-02-12T18:34:12.946Z,5.70
2019-02-12T18:36:43.476Z,5.70
2019-02-12T18:39:22.918Z,5.70
2019-02-12T18:41:59.895Z,5.70
2019-02-12T18:44:34.925Z,5.70
2019-02-12T18:47:05.300Z,5.70
2019-02-12T18:49:39.186Z,5.70
2019-02-12T18:52:11.071Z,5.70
2019-02-12T18:54:42.042Z,5.70
2019-02-12T18:57:29.099Z,5.70
2019-02-12T19:00:04.138Z,5.70
2019-02-12T19:02:31.754Z,5.80
2019-02-12T19:05:15.759Z,5.70
2019-02-12T19:07:47.749Z,5.70
2019-02-12T19:10:23.541Z,5.70
2019-02-12T19:12:54.015Z,5.70
2019-02-12T19:15:24.522Z,5.70
2019-02-12T19:18:12.504Z,5.70
2019-02-12T19:20:46.346Z,5.70
2019-02-12T19:23:19.675Z,5.70
2019-02-12T19:25:58.036Z,5.70
2019-02-12T19:28:28.486Z,5.70
2019-02-12T19:31:00.728Z,5.70
2019-02-12T19:33:37.949Z,5.70
2019-02-12T19:36:10.035Z,5.60
2019-02-12T19:38:43.307Z,5.60
2019-02-12T19:41:24.464Z,5.60
2019-02-12T19:43:55.151Z,5.70
2019-02-12T19:46:26.404Z,5.70
2019-02-12T19:48:57.156Z,5.70
2019-02-12T19:51:27.782Z,5.70
2019-02-12T19:54:02.565Z,5.70
2019-02-12T19:56:34.429Z,5.70
2019-02-12T19:59:06.204Z,5.70
2019-02-12T20:01:52.104Z,5.70
2019-02-12T20:04:24.875Z,5.70
2019-02-12T20:07:07.012Z,5.70
2019-02-12T20:09:36.885Z,5.60
2019-02-12T20:12:07.892Z,5.60
2019-02-12T20:14:38.047Z,5.70
2019-02-12T20:17:14.684Z,5.60
2019-02-12T20:19:52.314Z,5.60
2019-02-12T20:22:23.049Z,5.60
2019-02-12T20:24:53.184Z,5.60
2019-02-12T20:27:27.216Z,5.60
2019-02-12T20:29:57.563Z,5.60
2019-02-12T20:32:41.946Z,5.60
2019-02-12T20:35:15.658Z,5.50
2019-02-12T20:37:46.002Z,5.40
2019-02-12T20:40:18.741Z,5.50
2019-02-12T20:42:49.418Z,5.50
2019-02-12T20:45:19.674Z,5.50
2019-02-12T20:48:04.478Z,5.50
2019-02-12T20:50:38.328Z,5.50
2019-02-12T20:53:08.875Z,5.50
2019-02-12T20:56:13.491Z,5.40
2019-02-12T20:58:43.613Z,5.50
2019-02-12T21:01:17.387Z,5.40
2019-02-12T21:04:24.131Z,5.40
2019-02-12T21:06:55.558Z,5.40
2019-02-12T21:09:25.647Z,5.30
2019-02-12T21:11:56.358Z,5.40
2019-02-12T21:14:27.967Z,5.40
2019-02-12T21:17:00.736Z,5.40
2019-02-12T21:19:32.811Z,5.40
2019-02-12T21:22:04.895Z,5.30
2019-02-12T21:24:40.610Z,5.30
2019-02-12T21:27:13.986Z,5.20
2019-02-12T21:29:44.092Z,5.30
2019-02-12T21:32:14.126Z,5.30
2019-02-12T21:34:45.645Z,5.30
2019-02-12T21:37:18.320Z,5.30
2019-02-12T21:39:51.700Z,5.30
2019-02-12T21:42:38.673Z,5.30
2019-02-12T21:45:10.418Z,5.30
2019-02-12T21:47:41.830Z,5.30
2019-02-12T21:50:30.472Z,5.30
2019-02-12T21:53:00.992Z,5.30
2019-02-12T21:55:31.053Z,5.30
2019-02-12T21:58:01.246Z,5.30
2019-02-12T22:00:31.283Z,5.30
2019-02-12T22:03:04.419Z,5.30
2019-02-12T22:05:34.676Z,5.30
2019-02-12T22:08:12.659Z,5.30
2019-02-12T22:10:46.477Z,5.30
2019-02-12T22:13:18.069Z,5.30
2019-02-12T22:15:48.237Z,5.30
2019-02-12T22:18:19.724Z,5.30
2019-02-12T22:20:49.922Z,5.40
2019-02-12T22:24:00.145Z,5.40
2019-02-12T22:26:32.150Z,5.40
2019-02-12T22:29:02.271Z,5.40
2019-02-12T22:31:32.320Z,5.40
2019-02-12T22:34:07.407Z,5.40
2019-02-12T22:36:37.418Z,5.40
2019-02-12T22:39:10.393Z,5.40
2019-02-12T22:41:40.574Z,5.40
2019-02-12T22:44:13.564Z,5.40
2019-02-12T22:46:44.850Z,5.40
2019-02-12T22:49:18.034Z,5.40
2019-02-12T22:51:48.306Z,5.40
2019-02-12T22:54:20.086Z,5.40
2019-02-12T22:56:52.965Z,5.40
2019-02-12T22:59:22.677Z,5.40
2019-02-12T23:01:53.418Z,5.40
2019-02-12T23:04:26.001Z,5.40
2019-02-12T23:06:57.999Z,5.40
2019-02-12T23:09:49.332Z,5.50
2019-02-12T23:12:19.147Z,5.50
2019-02-12T23:14:49.352Z,5.50
2019-02-12T23:17:37.530Z,5.40
2019-02-12T23:20:07.870Z,5.50
2019-02-12T23:22:39.274Z,5.50
2019-02-12T23:25:09.792Z,5.50
2019-02-12T23:27:40.049Z,5.50
2019-02-12T23:30:10.527Z,5.50
2019-02-12T23:36:09.185Z,5.50
2019-02-12T23:38:39.853Z,5.50
2019-02-12T23:41:09.878Z,5.60
2019-02-12T23:43:58.125Z,5.60
2019-02-12T23:46:29.525Z,5.60
2019-02-12T23:48:59.532Z,5.60
2019-02-12T23:51:30.126Z,5.60
2019-02-12T23:54:09.335Z,5.70
2019-02-12T23:56:40.198Z,5.70
2019-02-12T23:59:10.411Z,5.70
